SBRFFNLU

Guest
Details From SBRF - Recife Intl
To FNLU - Luanda 4 De Fevereiro
Flight Number -
Tags Generated
Created
Modified
Stats Distance 2,861 nm / 5,299 km
Max Altitude 0 ft / 0 m
Waypoints 3
Social Downloads 5
Likes 0
Share VATSIM

Download

Looking for another format? Having issues loading an existing format? Contact us
Advertisement - Login to hide

Notes

Generated

Route

SBRF VNA FNLU

ID Type Via Altitude (ft/m) Position (lat/lon) Dist (leg/tot) Name
O SBRF APT - 0 / 0 -8.12516 / -34.92862 - / 0 nm
VNA VOR - 0 / 0 -8.84548 / 13.24748 2859 / 2859 nm LUANDA VOR-DME
O FNLU APT - 0 / 0 -8.85561 / 13.22570 1 / 2861 nm LUANDA 4 DE FEVEREIRO

Altitude Profile

Advertisement - Login to hide

Weather


0- 5 10 15 20 25 30 35+ Temperature / °C

Clouds and Precipitation
Forecast for 2018-10-20 12:00 UTC. Updated 27 minutes ago

Ground ~20,000 ft ~40,000 ft Winds

SBRF

Details ICAO SBRF (REC)
Name Guararapes-Gilberto Freyre
Region Brazil
Timezone America/Recife (UTC-3.0)
Stats Elevation 33 ft / 10 m (AMSL)
Location -8.126790° -34.923000°
Runways 1
Magnetic Variation 22.062° W

METAR

SBRF 201000Z 05006KT 9999 SCT025 26/21 Q1011

Decode

TAF

TAF SBRF 200200Z 2006/2106 08008KT 8000 SCT020 TN25/2008Z TX28/2015Z RMK PEA

Decode

Departure Runways

ID Width Length Bearing (true/mag) Surface Threshold Overrun Markings Lighting
18 148 ft / 45 m 9,875 ft / 3,010 m 161.88° / 183.94° ASPHALT 0 ft / 0 m 991 ft / 302 m PREC-APP CENTERLINE EDGE THRESHOLD ALSF-II
36 148 ft / 45 m 9,875 ft / 3,010 m 341.88° / 3.94° ASPHALT 0 ft / 0 m 528 ft / 161 m PREC-APP CENTERLINE EDGE THRESHOLD ALSF-II REIL-OMNI

FNLU

Details ICAO FNLU (LAD)
Name LUANDA 4 DE FEVEREIRO
Region Angola
Timezone Africa/Luanda (UTC+1.0)
Stats Elevation 243 ft / 74 m (AMSL)
Location -8.858340° 13.231100°
Runways 2
Magnetic Variation 3.338° W

METAR

FNLU 201000Z 28008KT 9999 BKN021 27/23 Q1012 NOSIG

Decode

TAF

TAF FNLU 200510Z 2006/2112 21006KT 9000 SCT014 BKN020 BECMG 2010/2013 27010KT 9999 SCT022 BKN025 TEMPO 2014/2018 FEW022

Decode

Destination Runways

ID Width Length Bearing (true/mag) Surface Threshold Overrun Markings Lighting
05 148 ft / 45 m 12,151 ft / 3,704 m 46.59° / 49.93° ASPHALT 0 ft / 0 m 0 ft / 0 m PREC-APP CENTERLINE EDGE THRESHOLD ALSF-I
07 148 ft / 45 m 8,210 ft / 2,502 m 67.54° / 70.88° ASPHALT 0 ft / 0 m 0 ft / 0 m APP EDGE THRESHOLD
23 148 ft / 45 m 12,151 ft / 3,704 m 226.59° / 229.92° ASPHALT 492 ft / 150 m 0 ft / 0 m PREC-APP CENTERLINE EDGE THRESHOLD CALVERT
25 148 ft / 45 m 8,210 ft / 2,502 m 247.54° / 250.87° ASPHALT 0 ft / 0 m 0 ft / 0 m APP EDGE THRESHOLD

Approach Navaids

Runway Type Ident Frequency Range Bearing (true/mag) Slope Elevation
23 GS ILD 110.30 MHz 10 nm / 19 km 226.59° / 229.93 ° 3.00° 243 ft / 74 m (AMSL)
23 DME ILD 110.30 MHz 18 nm / 33 km - - 243 ft / 74 m (AMSL)
23 LOC-ILS ILD 110.30 MHz 18 nm / 33 km 226.59° / 229.93 ° - 243 ft / 74 m (AMSL)

Popular Alternatives